This is the latest recevied weather packets stored in our database for station/object DL6JOE-10. If no packets are shown the sender has not sent any weather packets the latest 10 day(s).
| Time | Temp. | Humidity | Pressure | Rain* | Wind** | Luminosity | Snow |
|---|---|---|---|---|---|---|---|
| 1788075750 | 22.22° C | 57% | 963.9 hPa | - | - | - | - |
| 1788074850 | 21.67° C | 58% | 963.9 hPa | - | - | - | - |
| 1788073950 | 21.67° C | 59% | 963.8 hPa | - | - | - | - |
| 1788073050 | 21.11° C | 58% | 963.8 hPa | - | - | - | - |
| 1788072150 | 20.56° C | 60% | 963.8 hPa | - | - | - | - |
| 1788071250 | 20° C | 59% | 963.8 hPa | - | - | - | - |
| 1788070350 | 19.44° C | 59% | 963.7 hPa | - | - | - | - |
| 1788069449 | 19.44° C | 60% | 963.8 hPa | - | - | - | - |
| 1788068549 | 18.89° C | 61% | 963.6 hPa | - | - | - | - |
| 1788067649 | 18.89° C | 60% | 963.6 hPa | - | - | - | - |
| 1788066749 | 18.89° C | 60% | 963.5 hPa | - | - | - | - |
| 1788065849 | 18.89° C | 59% | 963.5 hPa | - | - | - | - |
| 1788064949 | 18.89° C | 59% | 963.5 hPa | - | - | - | - |
| 1788064049 | 18.89° C | 59% | 963.5 hPa | - | - | - | - |
| 1788063149 | 18.89° C | 59% | 963.4 hPa | - | - | - | - |
| 1788062249 | 19.44° C | 58% | 963.4 hPa | - | - | - | - |
| 1788061348 | 19.44° C | 58% | 963.3 hPa | - | - | - | - |
| 1788060449 | 19.44° C | 58% | 963.3 hPa | - | - | - | - |
| 1788038846 | 22.22° C | 48% | 963 hPa | - | - | - | - |
| 1788035246 | 23.33° C | 45% | 962.9 hPa | - | - | - | - |
| 1788033446 | 23.33° C | 44% | 962.9 hPa | - | - | - | - |
| 1788031646 | 23.89° C | 43% | 962.8 hPa | - | - | - | - |
| 1788028045 | 25.56° C | 41% | 962.4 hPa | - | - | - | - |
| 1788027145 | 25.56° C | 41% | 962.4 hPa | - | - | - | - |
| 1788024445 | 26.67° C | 38% | 962.1 hPa | - | - | - | - |
* Rain since midnight (hover to see other rain measurements)
** Current wind speed in m/s (hover to see current wind gust speed)